createdAt,value
2023-05-28T00:00:35.033Z,15.90
2023-05-28T00:03:02.648Z,15.95
2023-05-28T00:05:29.956Z,15.78
2023-05-28T00:08:01.719Z,15.76
2023-05-28T00:10:29.549Z,15.82
2023-05-28T00:12:57.279Z,15.76
2023-05-28T00:15:24.594Z,15.58
2023-05-28T00:17:53.922Z,15.63
2023-05-28T00:20:21.703Z,15.73
2023-05-28T00:22:50.067Z,15.68
2023-05-28T00:25:17.660Z,15.82
2023-05-28T00:27:44.892Z,15.66
2023-05-28T00:30:12.515Z,15.51
2023-05-28T00:32:40.098Z,15.53
2023-05-28T00:35:07.945Z,15.47
2023-05-28T00:37:35.396Z,15.68
2023-05-28T00:40:03.484Z,15.51
2023-05-28T00:42:30.916Z,15.46
2023-05-28T00:44:58.150Z,15.46
2023-05-28T00:47:25.950Z,15.51
2023-05-28T00:49:56.705Z,15.52
2023-05-28T00:52:24.020Z,15.56
2023-05-28T00:54:51.641Z,15.49
2023-05-28T00:57:22.679Z,15.48
2023-05-28T00:59:51.795Z,15.49
2023-05-28T01:02:19.328Z,15.44
2023-05-28T01:04:46.567Z,15.44
2023-05-28T01:07:13.883Z,15.45
2023-05-28T01:09:41.770Z,15.46
2023-05-28T01:12:09.375Z,15.46
2023-05-28T01:14:38.770Z,15.38
2023-05-28T01:17:07.370Z,15.37
2023-05-28T01:19:35.028Z,15.32
2023-05-28T01:22:07.273Z,15.30
2023-05-28T01:24:39.088Z,15.18
2023-05-28T01:27:06.908Z,15.21
2023-05-28T01:29:34.622Z,15.14
2023-05-28T01:32:02.352Z,15.15
2023-05-28T01:34:30.806Z,15.24
2023-05-28T01:37:00.220Z,15.21
2023-05-28T01:39:29.160Z,15.19
2023-05-28T01:41:57.109Z,15.08
2023-05-28T01:44:25.148Z,15.18
2023-05-28T01:46:54.250Z,15.19
2023-05-28T01:49:22.908Z,15.25
2023-05-28T01:51:53.295Z,15.18
2023-05-28T01:54:21.850Z,15.06
2023-05-28T01:56:49.252Z,15.07
2023-05-28T01:59:17.471Z,15.11
2023-05-28T02:01:44.804Z,15.03
2023-05-28T02:04:12.589Z,15.01
2023-05-28T02:06:41.890Z,15.14
2023-05-28T02:09:09.285Z,15.05
2023-05-28T02:11:36.875Z,15.05
2023-05-28T02:14:06.052Z,15.01
2023-05-28T02:16:33.567Z,14.93
2023-05-28T02:19:04.437Z,14.97
2023-05-28T02:21:31.884Z,14.92
2023-05-28T02:23:59.665Z,14.88
2023-05-28T02:26:26.910Z,15.07
2023-05-28T02:28:54.126Z,14.99
2023-05-28T02:31:21.789Z,14.90
2023-05-28T02:33:49.231Z,14.90
2023-05-28T02:36:16.797Z,14.95
2023-05-28T02:38:44.490Z,14.86
2023-05-28T02:41:11.753Z,14.89
2023-05-28T02:43:43.401Z,14.84
2023-05-28T02:46:11.432Z,14.86
2023-05-28T02:48:39.210Z,14.76
2023-05-28T02:51:06.994Z,14.71
2023-05-28T02:53:35.886Z,14.77
2023-05-28T02:56:03.086Z,14.71
2023-05-28T02:58:31.736Z,14.75
2023-05-28T03:00:59.570Z,14.77
2023-05-28T03:03:27.423Z,14.88
2023-05-28T03:05:55.393Z,14.78
2023-05-28T03:08:23.248Z,14.69
2023-05-28T03:10:50.677Z,14.81
2023-05-28T03:13:17.940Z,14.80
2023-05-28T03:15:45.599Z,14.84
2023-05-28T03:18:13.489Z,14.77
2023-05-28T03:20:41.021Z,14.77
2023-05-28T03:23:08.847Z,14.93
2023-05-28T03:25:39.400Z,15.17
2023-05-28T03:28:06.942Z,15.51
2023-05-28T03:30:36.551Z,15.58
2023-05-28T03:33:04.209Z,15.96
2023-05-28T03:35:31.505Z,16.24
2023-05-28T03:37:59.022Z,16.51
2023-05-28T03:40:26.571Z,16.75
2023-05-28T03:42:53.854Z,16.81
2023-05-28T03:45:21.656Z,16.90
2023-05-28T03:47:49.010Z,17.31
2023-05-28T03:50:16.709Z,17.86
2023-05-28T03:52:44.267Z,18.06
2023-05-28T03:55:11.764Z,18.39
2023-05-28T03:57:41.104Z,18.21
2023-05-28T04:00:10.162Z,18.77
2023-05-28T04:02:43.960Z,18.99
2023-05-28T04:05:11.981Z,19.28
2023-05-28T04:07:39.358Z,19.60
2023-05-28T04:10:08.293Z,19.47
2023-05-28T04:12:35.994Z,19.74
2023-05-28T04:15:05.209Z,19.24
2023-05-28T04:17:32.508Z,19.02
2023-05-28T04:20:00.055Z,19.14
2023-05-28T04:22:27.510Z,18.75
2023-05-28T04:24:56.708Z,18.16
2023-05-28T04:27:24.672Z,17.90
2023-05-28T04:29:56.163Z,17.60
2023-05-28T04:32:24.682Z,17.62
2023-05-28T04:34:55.920Z,17.97
2023-05-28T04:37:23.505Z,17.62
2023-05-28T04:39:50.781Z,17.73
2023-05-28T04:42:19.398Z,17.71
2023-05-28T04:44:47.185Z,17.29
2023-05-28T04:47:15.501Z,17.51
2023-05-28T04:49:43.186Z,17.03
2023-05-28T04:52:11.079Z,17.28
2023-05-28T04:54:38.373Z,17.54
2023-05-28T04:57:07.198Z,17.16
2023-05-28T04:59:36.178Z,17.25
2023-05-28T05:02:05.000Z,17.40
2023-05-28T05:04:32.290Z,17.87
2023-05-28T05:06:59.848Z,19.67
2023-05-28T05:09:28.426Z,21.14
2023-05-28T05:11:56.425Z,21.85
2023-05-28T05:14:23.917Z,21.50
2023-05-28T05:16:51.209Z,22.71
2023-05-28T05:19:18.614Z,22.91
2023-05-28T05:21:46.248Z,23.27
2023-05-28T05:24:13.526Z,23.14
2023-05-28T05:26:41.245Z,23.47
2023-05-28T05:29:08.816Z,23.91
2023-05-28T05:31:36.959Z,24.29
2023-05-28T05:34:05.458Z,24.26
2023-05-28T05:36:34.089Z,24.76
2023-05-28T05:39:01.625Z,24.48
2023-05-28T05:41:28.818Z,25.56
2023-05-28T05:43:56.832Z,24.07
2023-05-28T05:46:24.435Z,24.73
2023-05-28T05:48:51.725Z,25.68
2023-05-28T05:51:19.702Z,25.48
2023-05-28T05:53:47.053Z,26.32
2023-05-28T05:56:14.424Z,26.38
2023-05-28T05:58:42.337Z,25.61
2023-05-28T06:01:10.313Z,26.77
2023-05-28T06:03:38.072Z,27.15
2023-05-28T06:06:08.055Z,27.75
2023-05-28T06:08:36.697Z,25.98
2023-05-28T06:11:04.396Z,25.78
2023-05-28T06:13:32.591Z,27.91
2023-05-28T06:16:00.852Z,26.28
2023-05-28T06:18:28.414Z,26.90
2023-05-28T06:20:57.005Z,27.94
2023-05-28T06:23:24.568Z,29.32
2023-05-28T06:25:52.666Z,30.79
2023-05-28T06:28:20.244Z,28.22
2023-05-28T06:30:47.521Z,27.26
2023-05-28T06:33:15.131Z,27.29
2023-05-28T06:35:42.530Z,27.96
2023-05-28T06:38:09.757Z,28.81
2023-05-28T06:40:37.435Z,28.01
2023-05-28T06:43:04.742Z,29.55
2023-05-28T06:45:34.136Z,27.14
2023-05-28T06:48:02.777Z,26.91
2023-05-28T06:50:30.206Z,25.96
2023-05-28T06:52:57.736Z,26.51
2023-05-28T06:55:26.206Z,25.93
2023-05-28T06:57:54.240Z,23.84
2023-05-28T07:00:25.672Z,23.71
2023-05-28T07:02:53.438Z,23.28
2023-05-28T07:05:21.078Z,22.94
2023-05-28T07:07:48.593Z,23.14
2023-05-28T07:10:16.661Z,22.97
2023-05-28T07:12:44.281Z,24.55
2023-05-28T07:15:11.673Z,26.13
2023-05-28T07:17:40.083Z,27.12
2023-05-28T07:20:08.291Z,26.45
2023-05-28T07:22:37.935Z,26.94
2023-05-28T07:25:06.144Z,27.89
2023-05-28T07:27:33.740Z,26.62
2023-05-28T07:30:01.206Z,27.31
2023-05-28T07:32:28.814Z,27.49
2023-05-28T07:34:57.606Z,28.05
2023-05-28T07:37:25.190Z,28.28
2023-05-28T07:39:53.434Z,26.92
2023-05-28T07:42:20.806Z,28.85
2023-05-28T07:44:53.184Z,28.67
2023-05-28T07:47:20.882Z,27.85
2023-05-28T07:49:50.496Z,26.91
2023-05-28T07:52:20.578Z,25.78
2023-05-28T07:54:47.951Z,27.35
2023-05-28T07:57:16.011Z,27.31
2023-05-28T07:59:44.673Z,25.59
2023-05-28T08:02:12.342Z,25.85
2023-05-28T08:04:40.180Z,26.45
2023-05-28T08:07:07.858Z,25.31
2023-05-28T08:09:35.249Z,26.59
2023-05-28T08:12:03.518Z,26.47
2023-05-28T08:14:31.320Z,28.23
2023-05-28T08:16:59.569Z,26.43
2023-05-28T08:19:28.208Z,25.88
2023-05-28T08:21:56.103Z,26.67
2023-05-28T08:24:23.532Z,27.30
2023-05-28T08:26:52.467Z,26.48
2023-05-28T08:29:21.517Z,26.47
2023-05-28T08:31:49.804Z,27.30
2023-05-28T08:37:50.380Z,26.22
2023-05-28T08:40:19.185Z,27.14
2023-05-28T08:42:46.570Z,27.93
2023-05-28T08:45:14.048Z,28.56
2023-05-28T08:47:44.507Z,26.40
2023-05-28T08:50:13.495Z,27.87
2023-05-28T08:52:46.490Z,27.41
2023-05-28T08:55:14.719Z,28.26
2023-05-28T08:57:43.606Z,27.00
2023-05-28T09:00:12.925Z,25.22
2023-05-28T09:02:43.509Z,26.44
2023-05-28T09:05:11.057Z,26.21
2023-05-28T09:11:14.510Z,26.54
2023-05-28T09:13:47.146Z,26.07
2023-05-28T09:16:24.697Z,26.16
2023-05-28T09:19:03.914Z,25.72
2023-05-28T09:21:33.056Z,25.66
2023-05-28T09:24:02.137Z,25.43
2023-05-28T09:26:32.395Z,24.63
2023-05-28T09:29:00.643Z,24.90
2023-05-28T09:31:30.490Z,24.87
2023-05-28T09:33:57.827Z,25.27
2023-05-28T09:36:25.125Z,25.13
2023-05-28T09:38:52.727Z,25.83
2023-05-28T09:41:24.159Z,25.29
2023-05-28T09:44:00.667Z,24.92
2023-05-28T09:46:30.619Z,25.29
2023-05-28T09:48:59.052Z,25.62
2023-05-28T09:51:30.171Z,25.30
2023-05-28T09:54:00.087Z,25.45
2023-05-28T09:56:34.347Z,26.18
2023-05-28T09:59:04.044Z,25.09
2023-05-28T10:01:37.391Z,25.26
2023-05-28T10:04:12.530Z,25.04
2023-05-28T10:06:41.637Z,24.81
2023-05-28T10:09:10.688Z,23.91
2023-05-28T10:11:44.498Z,24.46
2023-05-28T10:14:12.849Z,24.50
2023-05-28T10:16:40.595Z,24.34
2023-05-28T10:19:07.764Z,24.64
2023-05-28T10:21:36.356Z,25.22
2023-05-28T10:27:36.641Z,24.63
2023-05-28T10:33:42.635Z,25.09
2023-05-28T10:39:42.844Z,24.96
2023-05-28T10:45:42.237Z,24.78
2023-05-28T10:48:17.100Z,24.82
2023-05-28T10:51:12.087Z,25.24
2023-05-28T10:53:39.830Z,25.22
2023-05-28T10:59:45.365Z,24.69
2023-05-28T11:05:44.457Z,24.41
2023-05-28T11:08:12.664Z,24.76
2023-05-28T11:10:40.065Z,25.01
2023-05-28T11:13:08.032Z,24.69
2023-05-28T11:15:42.233Z,24.21
2023-05-28T11:18:09.524Z,24.62
2023-05-28T11:20:37.153Z,24.27
2023-05-28T11:23:15.336Z,24.52
2023-05-28T11:25:43.613Z,24.65
2023-05-28T11:31:42.255Z,24.87
2023-05-28T11:37:41.897Z,24.95
2023-05-28T11:40:11.420Z,24.75
2023-05-28T11:42:40.625Z,24.49
2023-05-28T11:45:08.988Z,24.79
2023-05-28T11:47:37.721Z,24.72
2023-05-28T11:50:23.397Z,25.03
2023-05-28T11:52:50.962Z,24.52
2023-05-28T11:55:19.153Z,24.78
2023-05-28T11:57:56.479Z,24.53
2023-05-28T12:00:37.591Z,24.53
2023-05-28T12:03:05.323Z,24.46
2023-05-28T12:08:40.992Z,24.77
2023-05-28T12:14:38.817Z,24.62
2023-05-28T12:17:08.618Z,24.89
2023-05-28T12:23:13.426Z,24.89
2023-05-28T12:29:13.660Z,24.75
2023-05-28T12:31:41.371Z,24.95
2023-05-28T12:34:08.721Z,25.11
2023-05-28T12:36:36.179Z,25.29
2023-05-28T12:39:05.853Z,24.90
2023-05-28T12:41:33.081Z,25.14
2023-05-28T12:44:00.398Z,25.08
2023-05-28T12:46:28.021Z,25.45
2023-05-28T12:48:55.681Z,25.45
2023-05-28T12:51:22.908Z,25.10
2023-05-28T12:53:50.395Z,24.80
2023-05-28T12:56:19.309Z,25.11
2023-05-28T12:58:46.729Z,24.92
2023-05-28T13:01:14.602Z,24.91
2023-05-28T13:03:42.562Z,24.90
2023-05-28T13:06:10.134Z,25.08
2023-05-28T13:08:37.742Z,25.15
2023-05-28T13:11:05.068Z,24.90
2023-05-28T13:13:34.990Z,25.01
2023-05-28T13:16:02.929Z,24.79
2023-05-28T13:18:30.450Z,25.00
2023-05-28T13:20:58.171Z,24.94
2023-05-28T13:23:28.133Z,25.27
2023-05-28T13:25:55.322Z,25.09
2023-05-28T13:28:23.470Z,24.81
2023-05-28T13:30:51.930Z,24.83
2023-05-28T13:33:19.388Z,24.89
2023-05-28T13:35:46.914Z,25.07
2023-05-28T13:38:14.987Z,25.52
2023-05-28T13:40:43.444Z,25.27
2023-05-28T13:43:10.811Z,25.03
2023-05-28T13:45:38.552Z,25.09
2023-05-28T13:48:08.576Z,25.04
2023-05-28T13:50:36.234Z,24.81
2023-05-28T13:53:07.051Z,24.95
2023-05-28T13:55:36.733Z,24.57
2023-05-28T13:58:04.173Z,24.33
2023-05-28T14:00:38.642Z,24.46
2023-05-28T14:03:07.624Z,24.22
2023-05-28T14:05:37.769Z,24.40
2023-05-28T14:08:05.131Z,24.51
2023-05-28T14:10:32.677Z,24.46
2023-05-28T14:12:59.917Z,24.80
2023-05-28T14:15:27.181Z,24.78
2023-05-28T14:17:54.811Z,24.68
2023-05-28T14:20:22.206Z,24.92
2023-05-28T14:22:49.534Z,24.90
2023-05-28T14:25:17.139Z,24.84
2023-05-28T14:27:44.471Z,24.76
2023-05-28T14:30:12.517Z,24.63
2023-05-28T14:32:40.605Z,24.75
2023-05-28T14:35:08.537Z,24.93
2023-05-28T14:37:35.870Z,24.90
2023-05-28T14:40:05.711Z,25.11
2023-05-28T14:42:33.308Z,24.77
2023-05-28T14:45:00.643Z,24.84
2023-05-28T14:47:28.329Z,24.84
2023-05-28T14:49:56.056Z,24.70
2023-05-28T14:52:32.089Z,24.99
2023-05-28T14:55:00.056Z,25.07
2023-05-28T14:57:28.281Z,24.63
2023-05-28T15:00:02.092Z,24.59
2023-05-28T15:02:32.625Z,24.59
2023-05-28T15:05:00.149Z,24.55
2023-05-28T15:07:27.563Z,24.67
2023-05-28T15:09:55.144Z,24.49
2023-05-28T15:12:22.662Z,24.81
2023-05-28T15:14:50.348Z,24.79
2023-05-28T15:17:19.281Z,24.81
2023-05-28T15:19:49.836Z,24.75
2023-05-28T15:22:17.926Z,24.74
2023-05-28T15:24:47.770Z,24.81
2023-05-28T15:27:15.197Z,24.78
2023-05-28T15:29:45.529Z,24.66
2023-05-28T15:32:13.505Z,24.79
2023-05-28T15:34:41.002Z,24.55
2023-05-28T15:37:08.809Z,24.60
2023-05-28T15:39:41.590Z,24.59
2023-05-28T15:42:12.033Z,24.73
2023-05-28T15:44:40.323Z,24.95
2023-05-28T15:47:07.746Z,24.82
2023-05-28T15:49:35.020Z,24.89
2023-05-28T15:52:02.554Z,25.03
2023-05-28T15:54:30.513Z,24.85
2023-05-28T15:56:59.186Z,24.64
2023-05-28T15:59:26.921Z,24.87
2023-05-28T16:01:58.687Z,24.66
2023-05-28T16:04:27.433Z,24.64
2023-05-28T16:06:54.930Z,24.53
2023-05-28T16:09:23.017Z,24.44
2023-05-28T16:11:54.577Z,24.51
2023-05-28T16:14:23.210Z,24.73
2023-05-28T16:16:52.824Z,24.43
2023-05-28T16:19:20.333Z,24.51
2023-05-28T16:21:48.486Z,24.48
2023-05-28T16:24:18.167Z,24.55
2023-05-28T16:26:49.378Z,24.35
2023-05-28T16:29:18.995Z,24.32
2023-05-28T16:31:46.527Z,24.17
2023-05-28T16:34:15.852Z,24.41
2023-05-28T16:36:44.352Z,24.31
2023-05-28T16:39:11.790Z,24.30
2023-05-28T16:41:39.149Z,24.24
2023-05-28T16:44:07.021Z,24.35
2023-05-28T16:46:34.896Z,24.20
2023-05-28T16:49:02.500Z,24.25
2023-05-28T16:51:30.691Z,24.10
2023-05-28T16:53:58.921Z,23.98
2023-05-28T16:56:30.640Z,23.99
2023-05-28T16:58:58.233Z,23.98
2023-05-28T17:01:25.680Z,23.97
2023-05-28T17:03:53.200Z,24.04
2023-05-28T17:06:22.109Z,23.73
2023-05-28T17:08:49.319Z,23.85
2023-05-28T17:11:16.921Z,23.71
2023-05-28T17:13:44.424Z,23.72
2023-05-28T17:16:12.178Z,23.65
2023-05-28T17:18:42.205Z,23.55
2023-05-28T17:21:09.872Z,23.47
2023-05-28T17:23:37.419Z,23.39
2023-05-28T17:26:04.876Z,23.49
2023-05-28T17:28:32.524Z,23.49
2023-05-28T17:31:00.046Z,23.43
2023-05-28T17:33:27.954Z,23.30
2023-05-28T17:35:55.815Z,23.37
2023-05-28T17:38:23.197Z,23.19
2023-05-28T17:40:51.298Z,23.10
2023-05-28T17:43:19.100Z,23.02
2023-05-28T17:46:08.662Z,22.96
2023-05-28T17:48:57.579Z,22.79
2023-05-28T17:51:34.278Z,22.75
2023-05-28T17:54:01.994Z,22.68
2023-05-28T17:56:33.822Z,22.66
2023-05-28T17:59:02.252Z,22.69
2023-05-28T18:01:31.159Z,22.52
2023-05-28T18:03:58.891Z,22.51
2023-05-28T18:06:31.351Z,22.40
2023-05-28T18:08:59.134Z,22.27
2023-05-28T18:15:03.986Z,21.96
2023-05-28T18:17:32.763Z,21.84
2023-05-28T18:20:00.469Z,21.73
2023-05-28T18:22:27.904Z,21.64
2023-05-28T18:24:55.554Z,21.50
2023-05-28T18:30:53.365Z,21.26
2023-05-28T18:33:21.392Z,21.04
2023-05-28T18:39:21.617Z,20.85
2023-05-28T18:41:50.129Z,20.64
2023-05-28T18:47:52.006Z,20.44
2023-05-28T18:53:49.870Z,20.15
2023-05-28T18:56:17.498Z,19.98
2023-05-28T18:58:47.573Z,19.92
2023-05-28T19:04:44.695Z,19.83
2023-05-28T19:10:42.891Z,19.66
2023-05-28T19:13:10.444Z,19.74
2023-05-28T19:15:37.837Z,19.59
2023-05-28T19:18:05.262Z,19.47
2023-05-28T19:20:32.985Z,19.41
2023-05-28T19:23:00.549Z,19.41
2023-05-28T19:25:27.763Z,19.35
2023-05-28T19:31:27.931Z,19.11
2023-05-28T19:33:55.409Z,18.95
2023-05-28T19:36:22.681Z,18.95
2023-05-28T19:38:49.830Z,18.92
2023-05-28T19:41:18.033Z,18.87
2023-05-28T19:47:15.648Z,18.77
2023-05-28T19:49:43.425Z,18.70
2023-05-28T19:55:41.275Z,18.69
2023-05-28T19:58:23.681Z,18.66
2023-05-28T20:00:50.941Z,18.63
2023-05-28T20:10:04.490Z,18.39
2023-05-28T20:12:32.141Z,18.27
2023-05-28T20:14:59.491Z,18.25
2023-05-28T20:17:26.757Z,18.16
2023-05-28T20:19:54.381Z,18.05
2023-05-28T20:22:21.877Z,17.85
2023-05-28T20:24:49.733Z,17.68
2023-05-28T20:27:17.374Z,17.50
2023-05-28T20:29:44.812Z,17.43
2023-05-28T20:32:12.123Z,17.35
2023-05-28T20:34:39.696Z,17.29
2023-05-28T20:37:09.815Z,17.23
2023-05-28T20:39:38.647Z,17.12
2023-05-28T20:42:06.470Z,17.04
2023-05-28T20:44:36.869Z,16.95
2023-05-28T20:47:05.792Z,16.82
2023-05-28T20:49:33.480Z,16.75
2023-05-28T20:52:00.877Z,16.65
2023-05-28T20:54:28.197Z,16.53
2023-05-28T20:56:55.991Z,16.59
2023-05-28T20:59:25.770Z,16.61
2023-05-28T21:01:53.801Z,16.73
2023-05-28T21:04:21.447Z,16.77
2023-05-28T21:06:48.796Z,16.79
2023-05-28T21:09:16.049Z,16.76
2023-05-28T21:11:43.586Z,16.71
2023-05-28T21:14:10.788Z,16.64
2023-05-28T21:16:38.466Z,16.56
2023-05-28T21:19:07.937Z,16.37
2023-05-28T21:21:35.249Z,16.33
2023-05-28T21:24:02.446Z,16.30
2023-05-28T21:26:29.981Z,16.19
2023-05-28T21:28:59.238Z,16.21
2023-05-28T21:31:28.753Z,16.19
2023-05-28T21:33:56.379Z,16.18
2023-05-28T21:36:23.588Z,16.02
2023-05-28T21:38:50.988Z,15.94
2023-05-28T21:41:18.421Z,16.00
2023-05-28T21:43:45.786Z,15.99
2023-05-28T21:46:13.103Z,16.00
2023-05-28T21:48:40.842Z,15.97
2023-05-28T21:51:08.150Z,16.01
2023-05-28T21:53:35.370Z,16.00
2023-05-28T21:56:02.997Z,15.91
2023-05-28T21:58:30.259Z,15.79
2023-05-28T22:00:57.587Z,15.75
2023-05-28T22:06:57.433Z,15.84
2023-05-28T22:09:25.188Z,15.80
2023-05-28T22:11:52.418Z,15.76
2023-05-28T22:14:21.031Z,15.77
2023-05-28T22:16:49.928Z,15.73
2023-05-28T22:19:18.385Z,15.67
2023-05-28T22:21:46.140Z,15.59
2023-05-28T22:24:13.775Z,15.53
2023-05-28T22:26:41.414Z,15.54
2023-05-28T22:29:09.140Z,15.50
2023-05-28T22:31:36.656Z,15.35
2023-05-28T22:34:04.121Z,15.25
2023-05-28T22:36:31.800Z,15.17
2023-05-28T22:38:59.994Z,15.23
2023-05-28T22:41:27.346Z,15.36
2023-05-28T22:43:54.644Z,15.42
2023-05-28T22:46:22.146Z,15.41
2023-05-28T22:48:50.204Z,15.31
2023-05-28T22:51:17.767Z,15.36
2023-05-28T22:53:45.673Z,15.39
2023-05-28T22:56:13.752Z,15.33
2023-05-28T22:58:42.101Z,15.26
2023-05-28T23:01:10.607Z,15.16
2023-05-28T23:03:39.008Z,15.10
2023-05-28T23:06:07.620Z,15.16
2023-05-28T23:08:35.138Z,15.08
2023-05-28T23:11:02.322Z,15.06
2023-05-28T23:13:29.480Z,14.94
2023-05-28T23:15:56.997Z,14.86
2023-05-28T23:18:24.943Z,14.93
2023-05-28T23:20:52.789Z,15.05
2023-05-28T23:23:20.616Z,15.00
2023-05-28T23:25:47.821Z,15.03
2023-05-28T23:28:15.005Z,14.86
2023-05-28T23:30:42.748Z,14.91
2023-05-28T23:33:10.215Z,14.95
2023-05-28T23:35:37.516Z,14.95
2023-05-28T23:38:05.033Z,14.91
2023-05-28T23:40:32.458Z,14.95
2023-05-28T23:43:00.774Z,14.97
2023-05-28T23:45:28.371Z,14.99
2023-05-28T23:47:55.870Z,15.04
2023-05-28T23:50:23.311Z,15.02
2023-05-28T23:52:50.864Z,15.03
2023-05-28T23:55:18.061Z,15.00
2023-05-28T23:57:45.422Z,15.02
